createdAt,value
2018-10-02T00:01:12.588Z,76.30
2018-10-02T00:03:41.320Z,77.10
2018-10-02T00:06:10.691Z,76.40
2018-10-02T00:08:39.314Z,76.70
2018-10-02T00:11:13.126Z,76.90
2018-10-02T00:13:46.878Z,76.90
2018-10-02T00:16:15.533Z,77.50
2018-10-02T00:18:44.192Z,77.70
2018-10-02T00:21:12.852Z,78.00
2018-10-02T00:23:41.633Z,78.30
2018-10-02T00:26:10.362Z,78.90
2018-10-02T00:28:39.081Z,79.50
2018-10-02T00:31:08.929Z,80.50
2018-10-02T00:33:37.674Z,81.20
2018-10-02T00:36:06.338Z,82.10
2018-10-02T00:38:35.035Z,82.90
2018-10-02T00:41:03.751Z,84.00
2018-10-02T00:43:32.403Z,85.10
2018-10-02T00:46:01.079Z,86.50
2018-10-02T00:48:29.766Z,87.40
2018-10-02T00:50:58.504Z,88.30
2018-10-02T00:53:27.187Z,89.00
2018-10-02T00:55:56.696Z,89.60
2018-10-02T00:58:25.375Z,90.00
2018-10-02T01:00:54.154Z,90.30
2018-10-02T01:03:22.813Z,90.50
2018-10-02T01:05:51.460Z,90.70
2018-10-02T01:08:20.123Z,90.80
2018-10-02T01:10:48.884Z,90.90
2018-10-02T01:13:17.498Z,90.90
2018-10-02T01:15:46.191Z,91.00
2018-10-02T01:18:14.940Z,91.00
2018-10-02T01:20:43.648Z,91.10
2018-10-02T01:23:12.343Z,91.20
2018-10-02T01:25:41.053Z,91.30
2018-10-02T01:28:09.737Z,91.30
2018-10-02T01:30:38.458Z,91.40
2018-10-02T01:33:07.388Z,91.60
2018-10-02T01:35:36.036Z,92.00
2018-10-02T01:38:04.671Z,91.70
2018-10-02T01:40:33.461Z,91.90
2018-10-02T01:43:02.160Z,91.90
2018-10-02T01:45:30.918Z,91.90
2018-10-02T01:47:59.622Z,92.00
2018-10-02T01:50:28.367Z,92.00
2018-10-02T01:52:57.076Z,92.00
2018-10-02T01:55:25.749Z,92.10
2018-10-02T01:57:54.446Z,92.20
2018-10-02T02:00:23.234Z,92.60
2018-10-02T02:02:52.001Z,92.60
2018-10-02T02:05:20.693Z,92.80
2018-10-02T02:07:49.294Z,93.00
2018-10-02T02:10:17.962Z,93.10
2018-10-02T02:12:46.653Z,93.30
2018-10-02T02:15:15.346Z,93.40
2018-10-02T02:17:44.027Z,93.50
2018-10-02T02:20:12.751Z,93.60
2018-10-02T02:22:41.545Z,93.70
2018-10-02T02:25:10.250Z,93.70
2018-10-02T02:27:38.942Z,93.70
2018-10-02T02:30:07.727Z,93.80
2018-10-02T02:32:36.519Z,93.90
2018-10-02T02:35:05.211Z,93.90
2018-10-02T02:37:33.855Z,94.00
2018-10-02T02:40:02.698Z,94.10
2018-10-02T02:42:31.525Z,94.20
2018-10-02T02:45:00.242Z,94.20
2018-10-02T02:47:34.266Z,94.30
2018-10-02T02:50:08.212Z,94.40
2018-10-02T02:52:41.631Z,94.40
2018-10-02T02:55:10.353Z,94.50
2018-10-02T02:57:39.139Z,94.50
2018-10-02T03:00:08.453Z,94.70
2018-10-02T03:02:37.167Z,94.70
2018-10-02T03:05:06.114Z,94.80
2018-10-02T03:07:34.921Z,94.80
2018-10-02T03:10:03.644Z,94.80
2018-10-02T03:12:32.441Z,94.90
2018-10-02T03:15:02.156Z,95.00
2018-10-02T03:17:33.248Z,95.10
2018-10-02T03:20:03.126Z,95.10
2018-10-02T03:22:31.837Z,95.10
2018-10-02T03:25:00.533Z,95.10
2018-10-02T03:27:29.329Z,95.20
2018-10-02T03:29:58.072Z,95.10
2018-10-02T03:32:26.782Z,95.20
2018-10-02T03:34:55.506Z,95.20
2018-10-02T03:37:24.170Z,95.20
2018-10-02T03:39:52.938Z,95.10
2018-10-02T03:42:22.653Z,95.20
2018-10-02T03:44:51.341Z,95.20
2018-10-02T03:47:20.030Z,95.20
2018-10-02T03:49:48.728Z,95.10
2018-10-02T03:52:17.675Z,95.10
2018-10-02T03:54:46.324Z,95.10
2018-10-02T03:57:15.005Z,95.00
2018-10-02T03:59:43.692Z,94.90
2018-10-02T04:02:12.459Z,94.90
2018-10-02T04:04:41.146Z,94.80
2018-10-02T04:07:09.836Z,94.90
2018-10-02T04:09:38.532Z,94.90
2018-10-02T04:12:08.482Z,95.00
2018-10-02T04:14:37.168Z,95.00
2018-10-02T04:17:06.003Z,95.10
2018-10-02T04:19:34.686Z,95.10
2018-10-02T04:22:03.492Z,95.20
2018-10-02T04:24:32.229Z,95.30
2018-10-02T04:27:00.880Z,95.40
2018-10-02T04:29:29.585Z,95.50
2018-10-02T04:31:58.334Z,95.50
2018-10-02T04:34:27.002Z,95.50
2018-10-02T04:36:55.688Z,95.50
2018-10-02T04:39:24.417Z,95.50
2018-10-02T04:41:53.190Z,95.50
2018-10-02T04:44:21.833Z,95.50
2018-10-02T04:46:50.524Z,95.50
2018-10-02T04:49:19.515Z,95.60
2018-10-02T04:51:48.262Z,95.80
2018-10-02T04:54:17.008Z,96.00
2018-10-02T04:56:45.722Z,96.20
2018-10-02T04:59:14.361Z,96.20
2018-10-02T05:01:43.064Z,96.30
2018-10-02T05:04:12.392Z,96.30
2018-10-02T05:06:41.098Z,96.40
2018-10-02T05:09:10.783Z,96.50
2018-10-02T05:11:39.553Z,96.60
2018-10-02T05:14:08.372Z,96.60
2018-10-02T05:16:37.047Z,96.60
2018-10-02T05:19:05.817Z,96.70
2018-10-02T05:21:34.601Z,96.60
2018-10-02T05:24:03.497Z,96.50
2018-10-02T05:26:32.199Z,96.50
2018-10-02T05:29:00.935Z,96.50
2018-10-02T05:31:29.741Z,96.30
2018-10-02T05:33:58.562Z,96.20
2018-10-02T05:36:27.355Z,96.10
2018-10-02T05:38:56.172Z,96.20
2018-10-02T05:41:25.558Z,96.20
2018-10-02T05:43:54.329Z,96.20
2018-10-02T05:46:22.973Z,96.20
2018-10-02T05:48:51.764Z,96.10
2018-10-02T05:51:20.494Z,96.00
2018-10-02T05:53:49.159Z,96.00
2018-10-02T05:56:17.927Z,96.00
2018-10-02T05:58:46.633Z,96.20
2018-10-02T06:01:15.309Z,96.30
2018-10-02T06:03:44.053Z,96.40
2018-10-02T06:06:12.687Z,96.50
2018-10-02T06:08:41.460Z,96.50
2018-10-02T06:11:10.244Z,96.50
2018-10-02T06:13:39.079Z,96.50
2018-10-02T06:16:07.781Z,96.50
2018-10-02T06:18:36.509Z,96.50
2018-10-02T06:21:05.307Z,96.50
2018-10-02T06:23:34.095Z,96.50
2018-10-02T06:26:03.328Z,96.80
2018-10-02T06:28:32.341Z,96.40
2018-10-02T06:31:01.196Z,96.20
2018-10-02T06:33:29.988Z,96.20
2018-10-02T06:35:58.762Z,96.00
2018-10-02T06:38:27.602Z,96.10
2018-10-02T06:40:56.247Z,96.00
2018-10-02T06:43:25.015Z,96.10
2018-10-02T06:45:53.668Z,96.20
2018-10-02T06:48:22.322Z,96.20
2018-10-02T06:50:51.217Z,96.40
2018-10-02T06:53:19.956Z,96.60
2018-10-02T06:55:48.636Z,96.80
2018-10-02T06:58:17.324Z,97.00
2018-10-02T07:00:46.072Z,97.10
2018-10-02T07:03:14.784Z,97.20
2018-10-02T07:05:43.566Z,97.30
2018-10-02T07:08:13.000Z,97.40
2018-10-02T07:10:41.742Z,97.50
2018-10-02T07:13:10.574Z,97.60
2018-10-02T07:15:39.290Z,97.70
2018-10-02T07:18:07.955Z,98.10
2018-10-02T07:20:37.251Z,97.90
2018-10-02T07:23:06.443Z,98.00
2018-10-02T07:25:35.171Z,98.10
2018-10-02T07:28:03.965Z,98.20
2018-10-02T07:30:32.584Z,98.20
2018-10-02T07:33:01.369Z,98.30
2018-10-02T07:35:30.041Z,98.40
2018-10-02T07:37:59.231Z,98.40
2018-10-02T07:40:28.074Z,98.50
2018-10-02T07:42:56.870Z,98.60
2018-10-02T07:45:25.517Z,98.60
2018-10-02T07:47:54.207Z,98.60
2018-10-02T07:50:22.865Z,98.60
2018-10-02T07:52:51.791Z,98.70
2018-10-02T07:55:20.632Z,98.70
2018-10-02T07:57:49.375Z,98.70
2018-10-02T08:00:18.139Z,98.80
2018-10-02T08:02:46.918Z,98.80
2018-10-02T08:05:15.764Z,98.90
2018-10-02T08:07:44.619Z,98.90
2018-10-02T08:10:13.319Z,99.00
2018-10-02T08:12:42.189Z,99.00
2018-10-02T08:15:10.951Z,98.90
2018-10-02T08:17:40.021Z,98.90
2018-10-02T08:20:08.649Z,98.90
2018-10-02T08:22:37.499Z,99.00
2018-10-02T08:25:06.226Z,99.00
2018-10-02T08:27:35.038Z,99.00
2018-10-02T08:30:03.933Z,99.10
2018-10-02T08:32:32.635Z,99.10
2018-10-02T08:35:01.339Z,99.00
2018-10-02T08:37:30.139Z,99.00
2018-10-02T08:39:59.540Z,99.00
2018-10-02T08:42:28.217Z,98.90
2018-10-02T08:44:57.174Z,99.00
2018-10-02T08:47:26.122Z,98.80
2018-10-02T08:49:54.816Z,98.80
2018-10-02T08:52:23.701Z,98.80
2018-10-02T08:54:52.438Z,98.80
2018-10-02T08:57:21.196Z,98.80
2018-10-02T08:59:49.926Z,98.80
2018-10-02T09:02:18.797Z,98.80
2018-10-02T09:04:47.507Z,98.80
2018-10-02T09:07:16.337Z,98.80
2018-10-02T09:09:45.123Z,98.80
2018-10-02T09:12:13.842Z,98.80
2018-10-02T09:14:42.559Z,98.80
2018-10-02T09:17:11.278Z,98.80
2018-10-02T09:19:40.046Z,98.80
2018-10-02T09:22:08.874Z,98.80
2018-10-02T09:24:37.467Z,99.10
2018-10-02T09:27:06.368Z,98.80
2018-10-02T09:29:39.378Z,98.70
2018-10-02T09:32:13.423Z,98.70
2018-10-02T09:34:47.366Z,98.80
2018-10-02T09:37:21.362Z,98.70
2018-10-02T09:39:55.359Z,98.70
2018-10-02T09:42:29.310Z,98.60
2018-10-02T09:44:58.010Z,98.60
2018-10-02T09:47:26.703Z,98.50
2018-10-02T09:49:55.501Z,98.50
2018-10-02T09:52:24.266Z,98.30
2018-10-02T09:54:53.057Z,98.20
2018-10-02T09:57:21.795Z,98.20
2018-10-02T09:59:50.471Z,98.20
2018-10-02T10:02:24.664Z,98.10
2018-10-02T10:04:53.413Z,98.10
2018-10-02T10:07:22.132Z,98.10
2018-10-02T10:09:50.878Z,98.00
2018-10-02T10:12:19.756Z,98.00
2018-10-02T10:14:49.112Z,98.00
2018-10-02T10:17:17.975Z,97.90
2018-10-02T10:19:46.618Z,97.50
2018-10-02T10:22:15.300Z,97.30
2018-10-02T10:24:43.987Z,97.20
2018-10-02T10:27:12.810Z,97.10
2018-10-02T10:29:41.562Z,97.10
2018-10-02T10:32:10.971Z,97.10
2018-10-02T10:34:39.947Z,96.80
2018-10-02T10:37:08.443Z,96.50
2018-10-02T10:39:37.201Z,96.20
2018-10-02T10:42:06.411Z,96.10
2018-10-02T10:44:35.189Z,95.90
2018-10-02T10:47:03.997Z,95.80
2018-10-02T10:49:32.767Z,95.40
2018-10-02T10:52:01.633Z,95.30
2018-10-02T10:54:30.352Z,95.10
2018-10-02T10:56:59.346Z,94.90
2018-10-02T10:59:28.038Z,94.80
2018-10-02T11:01:56.839Z,94.70
2018-10-02T11:04:25.630Z,94.70
2018-10-02T11:06:54.312Z,94.30
2018-10-02T11:09:23.110Z,94.20
2018-10-02T11:11:51.867Z,94.10
2018-10-02T11:14:20.613Z,94.00
2018-10-02T11:16:49.388Z,93.80
2018-10-02T11:19:18.119Z,93.60
2018-10-02T11:21:46.898Z,93.30
2018-10-02T11:24:15.622Z,92.90
2018-10-02T11:26:44.263Z,92.90
2018-10-02T11:29:12.982Z,92.80
2018-10-02T11:31:41.713Z,92.70
2018-10-02T11:34:10.460Z,92.40
2018-10-02T11:36:39.161Z,92.30
2018-10-02T11:39:07.879Z,92.20
2018-10-02T11:41:36.696Z,92.30
2018-10-02T11:44:05.412Z,91.80
2018-10-02T11:46:34.159Z,91.70
2018-10-02T11:49:02.856Z,91.80
2018-10-02T11:51:31.742Z,91.80
2018-10-02T11:54:00.545Z,91.70
2018-10-02T11:56:29.251Z,91.80
2018-10-02T11:58:57.971Z,91.90
2018-10-02T12:01:26.980Z,91.90
2018-10-02T12:03:55.690Z,91.60
2018-10-02T12:06:24.504Z,91.30
2018-10-02T12:08:53.249Z,91.40
2018-10-02T12:11:21.967Z,91.40
2018-10-02T12:13:50.630Z,91.20
2018-10-02T12:16:19.297Z,91.20
2018-10-02T12:18:47.993Z,91.20
2018-10-02T12:21:16.753Z,90.80
2018-10-02T12:23:45.486Z,91.00
2018-10-02T12:26:14.229Z,90.50
2018-10-02T12:28:42.934Z,90.20
2018-10-02T12:31:11.883Z,89.80
2018-10-02T12:33:40.646Z,90.10
2018-10-02T12:36:09.395Z,89.00
2018-10-02T12:38:38.123Z,88.10
2018-10-02T12:41:06.918Z,87.70
2018-10-02T12:43:35.562Z,87.90
2018-10-02T12:46:04.509Z,88.00
2018-10-02T12:48:33.130Z,87.40
2018-10-02T12:51:02.103Z,87.60
2018-10-02T12:53:30.813Z,87.10
2018-10-02T12:55:59.459Z,87.90
2018-10-02T12:58:28.175Z,87.30
2018-10-02T13:00:56.969Z,87.20
2018-10-02T13:03:25.735Z,87.10
2018-10-02T13:05:54.435Z,86.80
2018-10-02T13:08:23.107Z,85.40
2018-10-02T13:10:51.920Z,85.40
2018-10-02T13:13:20.573Z,85.30
2018-10-02T13:15:49.272Z,83.80
2018-10-02T13:18:17.957Z,83.30
2018-10-02T13:20:47.338Z,83.10
2018-10-02T13:23:16.588Z,82.50
2018-10-02T13:25:45.239Z,81.50
2018-10-02T13:28:13.971Z,82.00
2018-10-02T13:30:42.738Z,83.10
2018-10-02T13:33:11.588Z,83.60
2018-10-02T13:35:40.270Z,84.20
2018-10-02T13:38:09.051Z,84.00
2018-10-02T13:40:37.739Z,83.30
2018-10-02T13:43:06.475Z,82.20
2018-10-02T13:45:35.173Z,81.80
2018-10-02T13:48:03.882Z,80.90
2018-10-02T13:50:32.740Z,79.80
2018-10-02T13:53:01.434Z,80.00
2018-10-02T13:55:31.096Z,79.80
2018-10-02T13:57:59.738Z,80.20
2018-10-02T14:00:29.407Z,79.00
2018-10-02T14:02:58.171Z,78.00
2018-10-02T14:05:27.039Z,78.00
2018-10-02T14:07:55.695Z,77.80
2018-10-02T14:10:24.773Z,78.00
2018-10-02T14:12:53.566Z,77.40
2018-10-02T14:15:22.372Z,77.30
2018-10-02T14:17:51.119Z,76.70
2018-10-02T14:20:19.822Z,77.00
2018-10-02T14:22:48.506Z,77.80
2018-10-02T14:25:17.309Z,78.80
2018-10-02T14:27:45.965Z,78.80
2018-10-02T14:30:14.637Z,78.80
2018-10-02T14:32:43.367Z,78.10
2018-10-02T14:35:12.053Z,77.30
2018-10-02T14:37:40.823Z,77.20
2018-10-02T14:40:09.504Z,77.30
2018-10-02T14:42:38.162Z,77.00
2018-10-02T14:45:06.866Z,76.20
2018-10-02T14:47:35.586Z,75.20
2018-10-02T14:50:05.167Z,75.00
2018-10-02T14:52:33.986Z,76.00
2018-10-02T14:55:02.780Z,77.60
2018-10-02T14:57:31.597Z,78.30
2018-10-02T15:00:00.341Z,78.20
2018-10-02T15:02:29.255Z,77.80
2018-10-02T15:04:58.035Z,78.20
2018-10-02T15:07:26.957Z,78.20
2018-10-02T15:09:55.726Z,78.50
2018-10-02T15:12:24.519Z,78.90
2018-10-02T15:14:53.238Z,78.70
2018-10-02T15:17:22.284Z,77.60
2018-10-02T15:19:50.977Z,77.40
2018-10-02T15:22:19.773Z,77.40
2018-10-02T15:24:48.651Z,77.60
2018-10-02T15:27:17.347Z,77.90
2018-10-02T15:29:46.021Z,78.80
2018-10-02T15:32:14.872Z,79.20
2018-10-02T15:34:43.578Z,79.50
2018-10-02T15:37:12.269Z,79.30
2018-10-02T15:39:41.813Z,78.90
2018-10-02T15:42:10.572Z,78.20
2018-10-02T15:44:39.339Z,78.10
2018-10-02T15:47:08.117Z,77.60
2018-10-02T15:49:36.923Z,78.00
2018-10-02T15:52:05.838Z,77.70
2018-10-02T15:54:34.599Z,77.80
2018-10-02T15:57:04.265Z,77.50
2018-10-02T15:59:32.942Z,77.50
2018-10-02T16:02:01.796Z,77.70
2018-10-02T16:04:30.535Z,77.80
2018-10-02T16:06:59.195Z,78.00
2018-10-02T16:09:27.945Z,78.60
2018-10-02T16:11:56.746Z,79.50
2018-10-02T16:14:25.570Z,79.80
2018-10-02T16:16:54.271Z,79.40
2018-10-02T16:19:22.939Z,79.60
2018-10-02T16:21:51.902Z,79.70
2018-10-02T16:24:20.541Z,80.40
2018-10-02T16:26:49.280Z,81.10
2018-10-02T16:29:18.198Z,81.40
2018-10-02T16:31:47.025Z,81.70
2018-10-02T16:34:15.645Z,81.90
2018-10-02T16:36:44.476Z,81.90
2018-10-02T16:39:13.202Z,82.50
2018-10-02T16:41:41.933Z,82.80
2018-10-02T16:44:10.595Z,83.00
2018-10-02T16:46:39.265Z,83.00
2018-10-02T16:49:07.930Z,83.30
2018-10-02T16:51:36.665Z,83.40
2018-10-02T16:54:05.672Z,83.80
2018-10-02T16:56:34.532Z,84.10
2018-10-02T16:59:03.211Z,84.30
2018-10-02T17:01:32.072Z,84.00
2018-10-02T17:04:00.904Z,83.60
2018-10-02T17:06:32.052Z,83.50
2018-10-02T17:09:00.759Z,83.60
2018-10-02T17:11:30.353Z,84.10
2018-10-02T17:13:59.258Z,84.20
2018-10-02T17:16:28.024Z,84.30
2018-10-02T17:18:57.728Z,84.20
2018-10-02T17:21:26.477Z,84.30
2018-10-02T17:23:55.212Z,84.40
2018-10-02T17:26:23.999Z,84.70
2018-10-02T17:28:52.781Z,85.10
2018-10-02T17:31:21.627Z,85.10
2018-10-02T17:33:50.354Z,85.20
2018-10-02T17:36:19.101Z,85.40
2018-10-02T17:38:48.996Z,85.40
2018-10-02T17:41:18.061Z,85.40
2018-10-02T17:43:46.864Z,85.60
2018-10-02T17:46:15.597Z,85.60
2018-10-02T17:48:44.455Z,85.60
2018-10-02T17:51:13.519Z,85.60
2018-10-02T17:53:43.491Z,85.60
2018-10-02T17:56:12.204Z,85.80
2018-10-02T17:58:40.988Z,86.00
2018-10-02T18:01:09.939Z,87.10
2018-10-02T18:03:38.895Z,87.10
2018-10-02T18:06:07.671Z,86.60
2018-10-02T18:08:36.498Z,87.10
2018-10-02T18:11:05.415Z,87.30
2018-10-02T18:13:34.302Z,87.40
2018-10-02T18:16:03.050Z,88.00
2018-10-02T18:18:32.183Z,88.30
2018-10-02T18:21:01.253Z,88.20
2018-10-02T18:23:30.120Z,88.00
2018-10-02T18:25:58.958Z,87.70
2018-10-02T18:28:27.747Z,87.20
2018-10-02T18:30:56.530Z,87.40
2018-10-02T18:33:25.327Z,87.70
2018-10-02T18:35:54.157Z,87.80
2018-10-02T18:38:22.833Z,88.00
2018-10-02T18:40:51.697Z,88.20
2018-10-02T18:43:20.608Z,88.30
2018-10-02T18:45:49.410Z,88.40
2018-10-02T18:48:18.093Z,88.40
2018-10-02T18:50:46.863Z,88.40
2018-10-02T18:53:15.641Z,88.30
2018-10-02T18:55:44.331Z,88.60
2018-10-02T18:58:13.027Z,88.80
2018-10-02T19:00:41.789Z,88.80
2018-10-02T19:03:10.502Z,89.10
2018-10-02T19:05:39.234Z,89.20
2018-10-02T19:08:07.977Z,89.30
2018-10-02T19:10:36.753Z,89.60
2018-10-02T19:13:05.432Z,89.70
2018-10-02T19:15:39.375Z,89.60
2018-10-02T19:18:08.109Z,89.70
2018-10-02T19:20:41.917Z,89.40
2018-10-02T19:23:10.633Z,89.20
2018-10-02T19:25:44.670Z,89.00
2018-10-02T19:28:13.356Z,88.90
2018-10-02T19:30:47.386Z,88.70
2018-10-02T19:33:16.063Z,88.50
2018-10-02T19:35:44.686Z,88.20
2018-10-02T19:39:18.418Z,88.80
2018-10-02T19:41:48.158Z,88.40
2018-10-02T19:44:16.814Z,88.40
2018-10-02T19:46:53.597Z,88.50
2018-10-02T19:49:23.703Z,88.80
2018-10-02T19:52:01.364Z,88.80
2018-10-02T19:54:30.411Z,89.20
2018-10-02T19:56:59.088Z,89.10
2018-10-02T19:59:27.829Z,88.90
2018-10-02T20:01:56.540Z,88.80
2018-10-02T20:04:25.288Z,88.70
2018-10-02T20:06:53.962Z,88.90
2018-10-02T20:09:22.750Z,88.90
2018-10-02T20:11:51.597Z,89.00
2018-10-02T20:14:20.273Z,89.20
2018-10-02T20:16:48.973Z,89.10
2018-10-02T20:19:17.710Z,88.50
2018-10-02T20:21:46.966Z,88.30
2018-10-02T20:24:15.668Z,88.00
2018-10-02T20:26:44.978Z,87.90
2018-10-02T20:29:13.726Z,87.40
2018-10-02T20:31:45.689Z,87.60
2018-10-02T20:34:14.441Z,87.50
2018-10-02T20:36:43.280Z,87.40
2018-10-02T20:39:12.550Z,87.20
2018-10-02T20:41:41.480Z,87.20
2018-10-02T20:44:10.376Z,87.10
2018-10-02T20:46:39.007Z,87.10
2018-10-02T20:49:12.848Z,86.80
2018-10-02T20:51:41.681Z,86.50
2018-10-02T20:54:10.367Z,86.60
2018-10-02T20:56:39.170Z,86.80
2018-10-02T20:59:07.864Z,86.80
2018-10-02T21:01:37.737Z,87.00
2018-10-02T21:04:06.888Z,87.00
2018-10-02T21:06:35.619Z,87.50
2018-10-02T21:09:05.030Z,87.30
2018-10-02T21:11:33.782Z,87.90
2018-10-02T21:14:02.445Z,87.70
2018-10-02T21:16:32.040Z,87.30
2018-10-02T21:19:01.562Z,86.90
2018-10-02T21:21:30.434Z,86.60
2018-10-02T21:24:01.483Z,87.00
2018-10-02T21:26:30.148Z,87.20
2018-10-02T21:28:58.918Z,87.30
2018-10-02T21:31:27.609Z,87.40
2018-10-02T21:33:56.295Z,87.60
2018-10-02T21:36:24.994Z,87.90
2018-10-02T21:38:53.655Z,88.10
2018-10-02T21:41:23.258Z,88.50
2018-10-02T21:43:51.952Z,88.50
2018-10-02T21:46:20.638Z,88.50
2018-10-02T21:48:49.335Z,88.40
2018-10-02T21:51:18.225Z,88.60
2018-10-02T21:53:46.961Z,88.50
2018-10-02T21:56:15.605Z,88.20
2018-10-02T21:58:44.310Z,88.00
2018-10-02T22:01:13.065Z,87.90
2018-10-02T22:03:41.761Z,87.80
2018-10-02T22:06:10.416Z,88.00
2018-10-02T22:08:39.073Z,87.80
2018-10-02T22:11:07.781Z,87.60
2018-10-02T22:13:36.452Z,87.50
2018-10-02T22:16:05.114Z,88.20
2018-10-02T22:18:33.832Z,87.20
2018-10-02T22:21:02.588Z,87.00
2018-10-02T22:23:31.268Z,87.20
2018-10-02T22:25:59.946Z,87.60
2018-10-02T22:28:28.598Z,87.10
2018-10-02T22:30:57.323Z,86.90
2018-10-02T22:33:26.251Z,87.40
2018-10-02T22:35:54.911Z,87.50
2018-10-02T22:38:23.598Z,87.70
2018-10-02T22:40:52.349Z,88.30
2018-10-02T22:43:21.098Z,88.10
2018-10-02T22:45:49.725Z,88.20
2018-10-02T22:48:18.381Z,87.80
2018-10-02T22:50:47.145Z,87.90
2018-10-02T22:53:15.885Z,87.80
2018-10-02T22:55:44.689Z,88.50
2018-10-02T22:58:13.913Z,86.80
2018-10-02T23:00:42.634Z,86.00
2018-10-02T23:03:11.323Z,85.70
2018-10-02T23:05:39.988Z,85.90
2018-10-02T23:08:08.719Z,85.80
2018-10-02T23:10:37.488Z,85.10
2018-10-02T23:13:06.286Z,85.20
2018-10-02T23:15:34.937Z,84.60
2018-10-02T23:18:03.705Z,84.10
2018-10-02T23:20:32.486Z,84.30
2018-10-02T23:23:01.235Z,84.10
2018-10-02T23:25:29.885Z,84.00
2018-10-02T23:27:58.490Z,83.90
2018-10-02T23:30:27.078Z,85.00
2018-10-02T23:32:55.777Z,83.10
2018-10-02T23:35:24.409Z,84.10
2018-10-02T23:37:53.432Z,84.10
2018-10-02T23:40:22.073Z,84.00
2018-10-02T23:42:50.703Z,84.20
2018-10-02T23:45:19.378Z,84.50
2018-10-02T23:47:48.100Z,84.30
2018-10-02T23:50:16.823Z,84.40
2018-10-02T23:52:45.520Z,84.40
2018-10-02T23:55:14.210Z,83.60
2018-10-02T23:57:42.926Z,82.80
